Aérodrome :
LOGIN :

S'inscrire | Disclaimer

   EN    FR    IT 

 










Légende :    VFR   VFR Marginal   IFR   IFR Intensif   IFR Très Intensif
Visi : 
Plafond : 
>= 8 km
>= 3000ft
5 à 8 km
1000 à 3000 ft
1500m à 5 km
500 à 1000 ft
800 à 1500m
200 à 500 ft
< 800m
< 200 ft
Symboles :   Orages  Brouillard  Fortes neiges  Fortes précipitations  Vent > 20 kt
SIGMETs :   Divers  Orages  Givrage  Turbulence  Onde Orograph.  Cendres Volcan.






- Altitude de l'aérodrome : 31 ft
- Code IATA : INV


EGPE - Inverness

DERNIER METAR :
  • 090920Z 23008KT 9999 FEW026 02/00 Q1009

METARs EXPIRÉS :
  • 090850Z 26006KT 9999 FEW026 03/00 Q1008
  • 090820Z 27011KT 240V310 9999 FEW024 04/00 Q1008
  • 090750Z 27010KT 9999 FEW022 04/00 Q1006
  • 090720Z 25006KT 9999 FEW022 SCT034 03/00 Q1005
  • 090650Z 32007KT 9999 FEW022 SCT034 04/00 Q1005

TAF TAF EGPE
Valide du 09 à 09h jusqu'au 09 à 18h UTC


090804Z 0909/0918 24009KT 9999 FEW025
PROB30
TEMPO 0909/0910 33018G28KT 6000 SHRA
ATIS : +44 1667 464 255



MET'MAP, la Météo Aéronautique d'un coup d'oeil ! - Copyright ORBIFLY Décembre 2007 - Disclaimer

ORBIFLY MET'MAP TEAM :

Programmation & Développement : Alexandra Zaïnal
Sur une idée originale de : Baudouin d'Aumeries
Assistance à la programmation : Marc-Olivier Méhu
Soutien technique & logistique : Manuel Goepfert

Contact : metmap@orbifly.com




SOURCES & CREDITS :

   NOAA